Time;durP1;ratioP1;P1;durP2;ratioP2;P2;SDS_P1;SDS_P2;PMS_P1;PMS_P2;Temp;Humidity;BMP_temperature;BMP_pressure;BME280_temperature;BME280_humidity;BME280_pressure;Samples;Min_cycle;Max_cycle;Signal;HPM_P1;HPM_P2
2023/07/16 00:01:47;;;;;;;;;;;;;;;23.06;96.83;95413.88;5114342;28;1533;-56
2023/07/16 00:04:13;;;;;;;;;;;;;;;22.84;97.96;95421.72;5114483;28;977;-56
2023/07/16 00:06:39;;;;;;;;;;;;;;;22.83;98.56;95411.06;5114274;28;1100;-56
2023/07/16 00:09:05;;;;;;;;;;;;;;;22.96;97.75;95416.31;5114390;28;1032;-55
2023/07/16 00:11:31;;;;;;;;;;;;;;;23.06;97.63;95421.22;5114261;28;1004;-56
2023/07/16 00:13:57;;;;;;;;;;;;;;;23.11;96.56;95418.66;5114267;28;1064;-55
2023/07/16 00:16:23;;;;;;;;;;;;;;;23.16;96.43;95422.34;5114055;28;1999;-56
2023/07/16 00:18:49;;;;;;;;;;;;;;;23.12;96.88;95415.66;5114245;28;1058;-56
2023/07/16 00:21:15;;;;;;;;;;;;;;;22.86;97.56;95411.41;5114221;28;969;-55
2023/07/16 00:26:51;;;;;;;;;;;;;;;22.98;96.94;95406.81;5093447;28;1132;-55
2023/07/16 00:29:18;;;;;;;;;;;;;;;22.79;98.40;95408.78;5092677;28;1159;-55
2023/07/16 00:31:45;;;;;;;;;;;;;;;22.61;99.29;95409.66;5093612;28;1041;-55
2023/07/16 00:34:12;;;;;;;;;;;;;;;22.72;99.31;95413.47;5093722;28;1036;-55
2023/07/16 00:36:38;;;;;;;;;;;;;;;22.80;98.95;95413.19;5093559;28;1988;-55
2023/07/16 00:39:05;;;;;;;;;;;;;;;22.93;97.95;95414.88;5093526;28;965;-56
2023/07/16 00:41:31;;;;;;;;;;;;;;;23.00;97.89;95407.41;5093389;28;1041;-55
2023/07/16 00:43:57;;;;;;;;;;;;;;;22.98;97.05;95415.00;5093706;28;1039;-56
2023/07/16 00:46:23;;;;;;;;;;;;;;;22.87;97.49;95415.78;5093714;28;929;-56
2023/07/16 00:48:49;;;;;;;;;;;;;;;22.91;97.18;95416.16;5093462;28;1099;-56
2023/07/16 00:51:16;;;;;;;;;;;;;;;23.06;96.24;95405.69;5093501;28;1028;-56
2023/07/16 00:53:42;;;;;;;;;;;;;;;22.91;97.31;95408.81;5093557;28;1066;-56
2023/07/16 00:56:10;;;;;;;;;;;;;;;22.68;97.89;95411.47;5093385;28;1226;-56
2023/07/16 00:58:36;;;;;;;;;;;;;;;22.66;98.77;95408.97;5093321;28;1988;-55
2023/07/16 01:01:02;;;;;;;;;;;;;;;22.69;98.42;95408.50;5093379;28;1044;-55
2023/07/16 01:03:28;;;;;;;;;;;;;;;22.57;98.47;95404.88;5093498;28;981;-56
2023/07/16 01:06:09;;;;;;;;;;;;;;;22.37;100.00;95408.72;5093278;28;1115;-56
2023/07/16 01:08:38;;;;;;;;;;;;;;;22.48;99.69;95414.44;5093259;28;1043;-55
2023/07/16 01:11:04;;;;;;;;;;;;;;;22.74;97.95;95405.91;5096145;28;1043;-56
2023/07/16 01:13:30;;;;;;;;;;;;;;;22.77;97.12;95394.56;5097294;28;1096;-56
2023/07/16 01:15:56;;;;;;;;;;;;;;;22.77;97.21;95397.28;5097321;28;1055;-56
2023/07/16 01:18:22;;;;;;;;;;;;;;;22.49;98.69;95397.88;5097372;28;1912;-56
2023/07/16 01:20:49;;;;;;;;;;;;;;;22.42;99.82;95397.97;5097117;28;1201;-56
2023/07/16 01:23:47;;;;;;;;;;;;;;;22.44;99.44;95396.88;5097003;28;992;-56
2023/07/16 01:26:13;;;;;;;;;;;;;;;22.42;98.75;95399.84;5064484;28;1659;-56
2023/07/16 01:28:45;;;;;;;;;;;;;;;22.16;99.65;95393.66;5097077;28;973;-56
2023/07/16 01:31:11;;;;;;;;;;;;;;;22.03;100.00;95394.63;5096859;28;1640;-56
2023/07/16 01:33:38;;;;;;;;;;;;;;;22.17;100.00;95397.19;5096754;28;1088;-56
2023/07/16 01:36:06;;;;;;;;;;;;;;;22.47;97.86;95393.72;5096801;28;1190;-56
2023/07/16 01:38:32;;;;;;;;;;;;;;;22.54;97.66;95391.75;5096820;28;1985;-56
2023/07/16 01:40:58;;;;;;;;;;;;;;;22.58;97.13;95401.13;5096671;28;1143;-55
2023/07/16 01:43:24;;;;;;;;;;;;;;;22.51;97.20;95395.75;5096616;28;1080;-56
2023/07/16 01:45:50;;;;;;;;;;;;;;;22.30;98.17;95407.97;5096569;28;970;-56
2023/07/16 01:48:24;;;;;;;;;;;;;;;22.19;98.23;95409.50;5096539;28;992;-56
2023/07/16 01:50:50;;;;;;;;;;;;;;;22.08;99.67;95407.53;5096504;28;1030;-56
2023/07/16 01:53:16;;;;;;;;;;;;;;;22.10;99.19;95407.31;5095468;28;1028;-56
2023/07/16 01:55:42;;;;;;;;;;;;;;;22.07;99.24;95407.78;5096327;28;1037;-56
2023/07/16 01:58:09;;;;;;;;;;;;;;;22.02;99.47;95409.31;5096406;28;1913;-55
2023/07/16 02:00:36;;;;;;;;;;;;;;;21.96;100.00;95393.84;5096355;28;1020;-56
2023/07/16 02:03:02;;;;;;;;;;;;;;;21.97;100.00;95405.59;5096300;28;973;-56
2023/07/16 02:05:28;;;;;;;;;;;;;;;22.00;100.00;95403.22;5096446;28;984;-55
2023/07/16 02:07:54;;;;;;;;;;;;;;;22.03;99.99;95401.97;5096107;28;1065;-56
2023/07/16 02:10:20;;;;;;;;;;;;;;;22.01;99.80;95404.91;5096258;28;1045;-56
2023/07/16 02:12:46;;;;;;;;;;;;;;;21.97;100.00;95403.72;5096219;28;1389;-56
2023/07/16 02:15:12;;;;;;;;;;;;;;;21.86;100.00;95403.63;5096109;28;972;-56
2023/07/16 02:17:38;;;;;;;;;;;;;;;21.70;100.00;95413.19;5095878;28;1983;-56
2023/07/16 02:20:07;;;;;;;;;;;;;;;21.56;100.00;95402.44;5096041;28;1013;-56
2023/07/16 02:22:36;;;;;;;;;;;;;;;21.72;100.00;95409.22;5095329;28;926;-56
2023/07/16 02:25:03;;;;;;;;;;;;;;;21.80;100.00;95419.78;5104332;28;1296;-56
2023/07/16 02:27:29;;;;;;;;;;;;;;;21.78;100.00;95418.38;5116250;28;1033;-56
2023/07/16 02:29:55;;;;;;;;;;;;;;;21.57;100.00;95423.16;5116114;28;1039;-56
2023/07/16 02:32:21;;;;;;;;;;;;;;;21.43;100.00;95419.66;5116000;28;965;-55
2023/07/16 02:34:47;;;;;;;;;;;;;;;21.51;100.00;95421.31;5116005;28;1103;-55
2023/07/16 02:37:13;;;;;;;;;;;;;;;21.54;100.00;95418.16;5116081;28;2000;-55
2023/07/16 02:39:41;;;;;;;;;;;;;;;21.54;100.00;95423.59;5116073;28;960;-55
2023/07/16 02:42:07;;;;;;;;;;;;;;;21.59;100.00;95422.94;5115998;28;1284;-55
2023/07/16 02:44:33;;;;;;;;;;;;;;;21.53;100.00;95423.81;5115866;28;1000;-55
2023/07/16 02:46:59;;;;;;;;;;;;;;;21.41;100.00;95421.78;5115727;28;1027;-56
2023/07/16 02:49:25;;;;;;;;;;;;;;;21.57;100.00;95417.72;5115741;28;1077;-55
2023/07/16 02:51:51;;;;;;;;;;;;;;;21.66;100.00;95420.16;5115786;28;1020;-55
2023/07/16 02:54:17;;;;;;;;;;;;;;;21.69;100.00;95420.53;5115701;28;1042;-55
2023/07/16 02:56:42;;;;;;;;;;;;;;;21.63;100.00;95418.72;5115526;28;1905;-55
2023/07/16 02:59:08;;;;;;;;;;;;;;;21.69;100.00;95425.16;5115563;28;1035;-55
2023/07/16 03:01:34;;;;;;;;;;;;;;;21.58;100.00;95422.09;5115324;28;1108;-55
2023/07/16 03:04:00;;;;;;;;;;;;;;;21.51;100.00;95424.03;5115367;28;1053;-55
2023/07/16 03:06:26;;;;;;;;;;;;;;;21.62;100.00;95423.31;5115515;28;1011;-55
2023/07/16 03:08:52;;;;;;;;;;;;;;;21.61;100.00;95418.09;5115251;28;1052;-56
2023/07/16 03:11:18;;;;;;;;;;;;;;;21.50;100.00;95421.56;5115101;28;1056;-56
2023/07/16 03:13:44;;;;;;;;;;;;;;;21.41;100.00;95419.06;5115279;28;1047;-56
2023/07/16 03:16:10;;;;;;;;;;;;;;;21.54;100.00;95429.03;5115146;28;1037;-56
2023/07/16 03:18:36;;;;;;;;;;;;;;;21.68;100.00;95426.19;5115029;28;1902;-56
2023/07/16 03:21:03;;;;;;;;;;;;;;;21.70;100.00;95424.06;5115200;28;1055;-56
2023/07/16 03:23:28;;;;;;;;;;;;;;;21.66;100.00;95428.31;5115170;28;964;-55
2023/07/16 03:25:54;;;;;;;;;;;;;;;21.57;100.00;95422.31;5114730;28;1309;-56
2023/07/16 03:28:20;;;;;;;;;;;;;;;21.49;100.00;95423.41;5114969;28;956;-56
2023/07/16 03:30:47;;;;;;;;;;;;;;;21.50;100.00;95425.09;5114765;28;968;-56
2023/07/16 03:33:13;;;;;;;;;;;;;;;21.39;100.00;95420.34;5114317;28;1000;-55
2023/07/16 03:35:42;;;;;;;;;;;;;;;21.30;100.00;95427.94;5114443;28;1033;-56
2023/07/16 03:38:08;;;;;;;;;;;;;;;21.20;100.00;95427.63;5114827;28;1989;-56
2023/07/16 03:40:33;;;;;;;;;;;;;;;21.24;100.00;95429.66;5114769;28;1056;-56
2023/07/16 03:42:59;;;;;;;;;;;;;;;21.37;100.00;95433.34;5114640;28;1041;-56
2023/07/16 03:45:25;;;;;;;;;;;;;;;21.58;100.00;95435.69;5114569;28;969;-56
2023/07/16 03:47:51;;;;;;;;;;;;;;;21.76;100.00;95439.50;5114890;28;1055;-57
2023/07/16 03:50:18;;;;;;;;;;;;;;;21.90;100.00;95448.38;5114619;28;1037;-56
2023/07/16 03:52:44;;;;;;;;;;;;;;;21.87;100.00;95448.81;5114679;28;1046;-57
2023/07/16 03:55:10;;;;;;;;;;;;;;;21.90;100.00;95441.03;5114618;28;1052;-56
2023/07/16 03:57:36;;;;;;;;;;;;;;;21.87;100.00;95446.09;5114435;28;1914;-56
2023/07/16 04:00:04;;;;;;;;;;;;;;;21.80;100.00;95449.72;5114389;28;1072;-56
2023/07/16 04:02:30;;;;;;;;;;;;;;;21.82;100.00;95449.50;5113893;28;1061;-57
2023/07/16 04:04:56;;;;;;;;;;;;;;;21.95;100.00;95457.53;5112326;28;962;-57
2023/07/16 04:07:22;;;;;;;;;;;;;;;22.07;100.00;95460.34;5113406;28;1024;-57
2023/07/16 04:09:48;;;;;;;;;;;;;;;22.12;100.00;95470.56;5113293;28;993;-57
2023/07/16 04:12:14;;;;;;;;;;;;;;;22.24;100.00;95474.22;5113327;28;961;-57
2023/07/16 04:14:40;;;;;;;;;;;;;;;22.20;100.00;95473.00;5113128;28;1625;-57
2023/07/16 04:17:06;;;;;;;;;;;;;;;22.36;100.00;95471.59;5114084;28;1910;-57
2023/07/16 04:19:32;;;;;;;;;;;;;;;22.47;100.00;95473.56;5114358;28;1009;-56
2023/07/16 04:21:58;;;;;;;;;;;;;;;22.60;100.00;95480.75;5114165;28;972;-57
2023/07/16 04:24:26;;;;;;;;;;;;;;;22.72;100.00;95475.34;5114076;28;1621;-57
2023/07/16 04:26:53;;;;;;;;;;;;;;;22.90;100.00;95477.22;5093594;28;1227;-56
2023/07/16 04:29:19;;;;;;;;;;;;;;;23.07;100.00;95474.69;5093679;28;1134;-56
2023/07/16 04:31:45;;;;;;;;;;;;;;;23.38;96.76;95474.44;5093804;28;965;-56
2023/07/16 04:34:11;;;;;;;;;;;;;;;23.64;94.49;95476.97;5093798;28;998;-56
2023/07/16 04:36:37;;;;;;;;;;;;;;;23.81;93.83;95479.88;5093651;28;1902;-55
2023/07/16 04:39:04;;;;;;;;;;;;;;;23.90;94.06;95479.31;5093767;28;996;-56
2023/07/16 04:41:30;;;;;;;;;;;;;;;24.01;92.07;95471.34;5093550;28;1092;-56
2023/07/16 04:43:56;;;;;;;;;;;;;;;24.08;91.91;95482.97;5093442;28;1044;-56
2023/07/16 04:46:22;;;;;;;;;;;;;;;24.12;91.82;95489.63;5097027;28;956;-56
2023/07/16 04:48:48;;;;;;;;;;;;;;;24.19;91.31;95486.75;5097965;28;972;-57
2023/07/16 04:51:14;;;;;;;;;;;;;;;24.26;90.50;95485.56;5097612;28;1104;-55
2023/07/16 04:53:40;;;;;;;;;;;;;;;24.38;91.10;95487.44;5097681;28;1047;-57
2023/07/16 04:56:12;;;;;;;;;;;;;;;24.34;90.45;95487.94;5097487;28;1037;-56
2023/07/16 04:58:38;;;;;;;;;;;;;;;24.38;91.27;95490.19;5097479;28;1905;-56
2023/07/16 05:01:04;;;;;;;;;;;;;;;24.51;90.90;95490.81;5097645;28;1211;-57
2023/07/16 05:03:31;;;;;;;;;;;;;;;24.47;90.64;95491.47;5097582;28;968;-57
2023/07/16 05:05:57;;;;;;;;;;;;;;;24.55;88.43;95488.44;5096205;28;1123;-57
2023/07/16 05:08:23;;;;;;;;;;;;;;;24.78;88.02;95494.91;5097393;28;1040;-57
2023/07/16 05:10:49;;;;;;;;;;;;;;;24.83;88.03;95487.63;5096118;28;1068;-57
2023/07/16 05:13:15;;;;;;;;;;;;;;;25.06;87.72;95488.63;5097142;28;1065;-57
2023/07/16 05:15:43;;;;;;;;;;;;;;;25.12;86.69;95501.34;5097459;28;1059;-57
2023/07/16 05:18:09;;;;;;;;;;;;;;;25.02;87.29;95495.66;5096101;28;1906;-57
2023/07/16 05:20:35;;;;;;;;;;;;;;;24.91;88.63;95492.72;5097260;28;1035;-57
2023/07/16 05:23:01;;;;;;;;;;;;;;;24.98;88.04;95498.03;5095872;28;1171;-57
2023/07/16 05:25:27;;;;;;;;;;;;;;;24.99;86.83;95502.44;5108827;28;1378;-57
2023/07/16 05:27:53;;;;;;;;;;;;;;;25.17;87.07;95498.69;5117336;28;976;-57
2023/07/16 05:30:19;;;;;;;;;;;;;;;25.16;87.11;95498.94;5117286;28;1041;-57
2023/07/16 05:32:45;;;;;;;;;;;;;;;25.46;86.94;95496.81;5117275;28;1064;-57
2023/07/16 05:35:11;;;;;;;;;;;;;;;25.40;86.49;95494.19;5115988;28;1036;-57
2023/07/16 05:37:37;;;;;;;;;;;;;;;25.36;85.09;95503.97;5116057;28;1902;-57
2023/07/16 05:40:04;;;;;;;;;;;;;;;25.36;86.04;95499.34;5117109;28;1296;-57
2023/07/16 05:42:30;;;;;;;;;;;;;;;25.42;83.65;95503.00;5117071;28;1032;-57
2023/07/16 05:44:56;;;;;;;;;;;;;;;25.52;84.04;95509.50;5117026;28;1048;-57
2023/07/16 05:47:22;;;;;;;;;;;;;;;25.62;83.96;95508.00;5116059;28;997;-57
2023/07/16 05:49:48;;;;;;;;;;;;;;;25.68;84.75;95498.81;5132825;27;1101;-57
2023/07/16 05:52:14;;;;;;;;;;;;;;;25.75;82.71;95507.69;5116867;28;1073;-57
2023/07/16 05:54:42;;;;;;;;;;;;;;;25.85;84.44;95501.56;5116923;28;1023;-57
2023/07/16 05:57:08;;;;;;;;;;;;;;;26.14;83.41;95512.44;5115534;28;1981;-57
2023/07/16 05:59:36;;;;;;;;;;;;;;;26.37;82.40;95515.00;5116688;28;1111;-57
2023/07/16 06:02:03;;;;;;;;;;;;;;;26.49;81.31;95512.16;5116734;28;1092;-57
2023/07/16 06:04:29;;;;;;;;;;;;;;;26.49;82.45;95512.97;5116705;28;1000;-57
2023/07/16 06:06:56;;;;;;;;;;;;;;;26.47;81.26;95514.31;5116490;28;1001;-57
2023/07/16 06:09:22;;;;;;;;;;;;;;;26.65;78.91;95516.81;5116561;28;1043;-57
2023/07/16 06:11:48;;;;;;;;;;;;;;;26.95;76.47;95525.69;5116342;28;1045;-57
2023/07/16 06:14:15;;;;;;;;;;;;;;;27.17;78.38;95522.94;5116693;28;976;-57
2023/07/16 06:16:41;;;;;;;;;;;;;;;27.31;78.05;95517.88;5115298;28;2009;-56
2023/07/16 06:19:07;;;;;;;;;;;;;;;27.37;75.98;95514.09;5115328;28;1028;-56
2023/07/16 06:21:33;;;;;;;;;;;;;;;27.41;74.51;95516.09;5115135;28;1005;-56
2023/07/16 06:23:59;;;;;;;;;;;;;;;27.33;76.42;95513.78;5116276;28;1118;-56
2023/07/16 06:26:25;;;;;;;;;;;;;;;27.35;77.16;95514.34;5115899;28;1469;-56
2023/07/16 06:28:51;;;;;;;;;;;;;;;27.48;78.48;95512.31;5114924;28;1116;-56
2023/07/16 06:31:17;;;;;;;;;;;;;;;27.58;76.37;95512.41;5116294;28;972;-56
2023/07/16 06:33:46;;;;;;;;;;;;;;;27.91;73.58;95502.31;5116032;28;1088;-56
2023/07/16 06:36:12;;;;;;;;;;;;;;;27.87;74.15;95504.72;5116027;28;1040;-56
2023/07/16 06:38:38;;;;;;;;;;;;;;;27.80;75.98;95504.09;5115989;28;1906;-56
2023/07/16 06:41:05;;;;;;;;;;;;;;;27.83;75.03;95503.56;5114726;28;1194;-56
2023/07/16 06:43:31;;;;;;;;;;;;;;;27.82;72.30;95496.41;5116103;28;1028;-56
2023/07/16 06:45:57;;;;;;;;;;;;;;;27.82;73.90;95497.22;5115797;28;1020;-57
2023/07/16 06:48:23;;;;;;;;;;;;;;;27.94;72.90;95496.25;5115988;28;1055;-58
2023/07/16 06:50:52;;;;;;;;;;;;;;;28.06;73.12;95496.06;5115715;28;1045;-57
2023/07/16 06:53:18;;;;;;;;;;;;;;;28.03;73.57;95494.69;5115794;28;960;-57
2023/07/16 06:55:44;;;;;;;;;;;;;;;28.11;72.31;95496.94;5114397;28;1031;-58
2023/07/16 06:58:10;;;;;;;;;;;;;;;28.26;69.64;95487.97;5115665;28;1906;-57
2023/07/16 07:00:37;;;;;;;;;;;;;;;28.34;72.11;95487.50;5115765;28;917;-57
2023/07/16 07:03:03;;;;;;;;;;;;;;;28.53;73.16;95495.31;5115606;28;1032;-57
2023/07/16 07:05:29;;;;;;;;;;;;;;;28.55;69.91;95491.22;5115494;28;1108;-56
2023/07/16 07:07:55;;;;;;;;;;;;;;;28.58;71.14;95490.69;5115250;28;1035;-58
2023/07/16 07:10:21;;;;;;;;;;;;;;;28.58;72.13;95485.19;5115277;28;1033;-57
2023/07/16 07:12:47;;;;;;;;;;;;;;;28.85;72.00;95483.38;5115273;28;1041;-57
2023/07/16 07:15:13;;;;;;;;;;;;;;;28.99;70.38;95482.63;5114091;28;1045;-57
2023/07/16 07:17:39;;;;;;;;;;;;;;;29.10;70.37;95477.13;5115164;28;1983;-58
2023/07/16 07:20:06;;;;;;;;;;;;;;;29.19;67.41;95481.88;5115279;28;1059;-57
2023/07/16 07:22:32;;;;;;;;;;;;;;;29.12;70.66;95480.44;5115066;28;1096;-57
2023/07/16 07:24:58;;;;;;;;;;;;;;;29.18;68.23;95485.75;5114894;28;1375;-58
2023/07/16 07:27:25;;;;;;;;;;;;;;;29.43;67.26;95486.09;5115219;28;1048;-57
2023/07/16 07:29:51;;;;;;;;;;;;;;;29.71;66.18;95485.56;5115016;28;1088;-58
2023/07/16 07:32:21;;;;;;;;;;;;;;;29.81;68.07;95482.03;5115090;28;1031;-58
2023/07/16 07:34:47;;;;;;;;;;;;;;;29.80;67.79;95479.53;5113628;28;1096;-58
2023/07/16 07:37:14;;;;;;;;;;;;;;;29.68;68.21;95485.28;5114803;28;1990;-57
2023/07/16 07:39:40;;;;;;;;;;;;;;;29.71;66.83;95477.31;5114741;28;1055;-58
2023/07/16 07:42:06;;;;;;;;;;;;;;;29.79;67.86;95478.72;5115026;28;1035;-59
2023/07/16 07:44:32;;;;;;;;;;;;;;;29.65;67.43;95477.56;5114809;28;985;-59
2023/07/16 07:46:58;;;;;;;;;;;;;;;29.41;68.44;95478.09;5113712;28;1529;-59
2023/07/16 07:49:24;;;;;;;;;;;;;;;29.53;68.77;95469.56;5114783;28;989;-59
2023/07/16 07:51:50;;;;;;;;;;;;;;;29.62;68.44;95465.16;5114532;28;1041;-58
2023/07/16 07:54:16;;;;;;;;;;;;;;;29.89;68.41;95475.94;5114556;28;1016;-58
2023/07/16 07:56:45;;;;;;;;;;;;;;;30.36;66.65;95466.56;5113225;28;1902;-59
2023/07/16 07:59:11;;;;;;;;;;;;;;;30.64;66.01;95472.56;5114547;28;1624;-59
2023/07/16 08:01:37;;;;;;;;;;;;;;;30.67;66.16;95479.44;5114552;28;973;-58
2023/07/16 08:04:03;;;;;;;;;;;;;;;30.69;66.02;95477.22;5114359;28;1044;-60
2023/07/16 08:06:29;;;;;;;;;;;;;;;30.63;65.55;95475.59;5114405;28;1051;-58
2023/07/16 08:08:55;;;;;;;;;;;;;;;30.59;67.96;95475.34;5114191;28;1068;-58
2023/07/16 08:11:21;;;;;;;;;;;;;;;30.54;66.07;95472.59;5114446;28;1031;-58
2023/07/16 08:13:49;;;;;;;;;;;;;;;30.61;67.60;95475.06;5114285;28;1092;-58
2023/07/16 08:16:15;;;;;;;;;;;;;;;30.67;67.14;95472.00;5114342;28;1039;-58
2023/07/16 08:18:41;;;;;;;;;;;;;;;30.78;65.44;95467.28;5112963;28;1914;-58
2023/07/16 08:21:07;;;;;;;;;;;;;;;30.68;65.24;95478.34;5113631;28;949;-58
2023/07/16 08:23:33;;;;;;;;;;;;;;;30.66;67.06;95473.13;5114043;28;1128;-58
2023/07/16 08:25:59;;;;;;;;;;;;;;;30.55;67.11;95474.25;5113974;28;1539;-58
2023/07/16 08:28:25;;;;;;;;;;;;;;;30.70;65.38;95473.38;5114144;28;1214;-58
2023/07/16 08:30:51;;;;;;;;;;;;;;;31.00;67.61;95475.22;5114123;28;1043;-58
2023/07/16 08:33:17;;;;;;;;;;;;;;;31.17;65.96;95463.81;5114005;28;964;-58
2023/07/16 08:35:44;;;;;;;;;;;;;;;31.06;66.21;95467.75;5114032;28;981;-58
2023/07/16 08:38:10;;;;;;;;;;;;;;;31.18;66.12;95464.66;5113825;28;2047;-58
2023/07/16 08:40:39;;;;;;;;;;;;;;;31.43;66.61;95463.66;5114183;28;972;-58
2023/07/16 08:43:06;;;;;;;;;;;;;;;31.65;64.42;95464.09;5113864;28;1053;-58
2023/07/16 08:45:36;;;;;;;;;;;;;;;31.87;63.95;95454.53;5113841;28;1020;-58
2023/07/16 08:48:02;;;;;;;;;;;;;;;31.97;64.50;95460.00;5113929;28;1032;-58
2023/07/16 08:50:28;;;;;;;;;;;;;;;31.76;63.53;95455.72;5113914;28;1056;-58
2023/07/16 08:52:55;;;;;;;;;;;;;;;31.76;65.53;95456.56;5113702;28;1091;-58
2023/07/16 08:55:21;;;;;;;;;;;;;;;31.82;64.48;95457.34;5112613;28;1124;-58
2023/07/16 08:57:47;;;;;;;;;;;;;;;31.99;65.41;95457.75;5113856;28;1930;-58
2023/07/16 09:00:14;;;;;;;;;;;;;;;32.03;63.02;95446.97;5112674;28;1036;-58
2023/07/16 09:02:40;;;;;;;;;;;;;;;31.89;64.18;95452.28;5113816;28;973;-58
2023/07/16 09:05:08;;;;;;;;;;;;;;;31.96;64.84;95460.28;5113586;28;1080;-58
2023/07/16 09:07:36;;;;;;;;;;;;;;;32.00;63.43;95453.03;5113330;28;1057;-58
2023/07/16 09:10:02;;;;;;;;;;;;;;;31.74;59.84;95446.91;5113802;28;977;-58
2023/07/16 09:12:29;;;;;;;;;;;;;;;31.76;60.59;95451.03;5112606;28;984;-58
2023/07/16 09:14:55;;;;;;;;;;;;;;;31.97;61.20;95448.94;5113589;28;1084;-58
2023/07/16 09:17:23;;;;;;;;;;;;;;;32.28;60.49;95441.19;5113554;28;1992;-58
2023/07/16 09:19:49;;;;;;;;;;;;;;;32.35;61.45;95442.81;5113187;28;1132;-58
2023/07/16 09:22:16;;;;;;;;;;;;;;;32.35;60.69;95448.34;5113711;28;1023;-58
2023/07/16 09:24:44;;;;;;;;;;;;;;;32.11;59.77;95432.50;5113653;28;1556;-58
2023/07/16 09:27:11;;;;;;;;;;;;;;;32.24;59.98;95433.78;5113390;28;1112;-58
2023/07/16 09:29:38;;;;;;;;;;;;;;;32.23;58.11;95432.97;5113583;28;1114;-58
2023/07/16 09:32:05;;;;;;;;;;;;;;;32.32;55.37;95438.66;5115942;28;1057;-58
2023/07/16 09:34:31;;;;;;;;;;;;;;;32.42;52.74;95433.03;5117300;27;1020;-58
2023/07/16 09:36:57;;;;;;;;;;;;;;;32.51;56.17;95424.09;5117230;28;1913;-58
2023/07/16 09:39:24;;;;;;;;;;;;;;;32.65;56.81;95422.25;5117363;28;961;-58
2023/07/16 09:41:50;;;;;;;;;;;;;;;32.67;59.55;95423.63;5117279;28;948;-57
2023/07/16 09:44:17;;;;;;;;;;;;;;;32.73;58.42;95427.19;5117207;28;1250;-58
2023/07/16 09:46:43;;;;;;;;;;;;;;;32.71;56.35;95418.34;5116959;28;1045;-58
2023/07/16 09:49:10;;;;;;;;;;;;;;;32.71;58.12;95418.34;5116988;28;1032;-58
2023/07/16 09:51:36;;;;;;;;;;;;;;;32.67;58.89;95422.81;5116950;28;1579;-58
2023/07/16 09:54:03;;;;;;;;;;;;;;;32.70;59.78;95422.22;5117099;28;1031;-58
2023/07/16 09:56:35;;;;;;;;;;;;;;;32.75;57.01;95418.56;5116825;28;1163;-58
2023/07/16 09:59:02;;;;;;;;;;;;;;;32.71;55.31;95410.03;5116785;28;1874;-58
2023/07/16 10:01:29;;;;;;;;;;;;;;;32.91;56.96;95419.19;5116789;28;976;-58
2023/07/16 10:03:55;;;;;;;;;;;;;;;32.93;56.75;95409.47;5116751;28;1668;-58
2023/07/16 10:06:21;;;;;;;;;;;;;;;33.04;57.82;95407.38;5116893;28;1043;-58
2023/07/16 10:08:50;;;;;;;;;;;;;;;33.09;57.27;95404.56;5116744;28;1024;-58
2023/07/16 10:11:17;;;;;;;;;;;;;;;33.19;56.66;95409.97;5116661;28;1132;-58
2023/07/16 10:13:43;;;;;;;;;;;;;;;33.17;57.31;95400.31;5116628;28;1040;-58
2023/07/16 10:16:19;;;;;;;;;;;;;;;33.11;54.51;95407.88;5116532;28;992;-58
2023/07/16 10:18:50;;;;;;;;;;;;;;;32.96;56.83;95388.69;5115213;28;1922;-58
2023/07/16 10:21:22;;;;;;;;;;;;;;;32.88;54.47;95395.72;5116526;28;976;-58
2023/07/16 10:23:56;;;;;;;;;;;;;;;33.07;54.83;95393.78;5116297;28;1095;-58
2023/07/16 10:26:26;;;;;;;;;;;;;;;33.19;52.92;95400.84;5114866;28;1685;-58
2023/07/16 10:28:52;;;;;;;;;;;;;;;33.38;54.24;95387.00;5116253;28;1047;-58
2023/07/16 10:31:22;;;;;;;;;;;;;;;33.47;56.66;95390.72;5116144;28;1154;-58
2023/07/16 10:34:07;;;;;;;;;;;;;;;33.31;55.38;95392.06;5116332;28;1060;-58
2023/07/16 10:36:37;;;;;;;;;;;;;;;33.35;55.37;95380.13;5116065;28;1040;-58
2023/07/16 10:39:04;;;;;;;;;;;;;;;33.39;56.37;95383.91;5114740;28;1901;-58
2023/07/16 10:41:30;;;;;;;;;;;;;;;33.38;55.09;95384.22;5115987;28;1021;-57
2023/07/16 10:43:56;;;;;;;;;;;;;;;33.34;53.88;95378.44;5114412;28;1043;-58
2023/07/16 10:46:22;;;;;;;;;;;;;;;33.42;56.67;95380.53;5114948;28;1036;-58
2023/07/16 10:48:49;;;;;;;;;;;;;;;33.36;53.53;95381.75;5115995;28;1034;-58
2023/07/16 10:51:15;;;;;;;;;;;;;;;33.36;54.20;95372.63;5115906;28;969;-58
2023/07/16 10:53:42;;;;;;;;;;;;;;;33.60;49.50;95378.88;5115804;27;965;-58
2023/07/16 10:56:09;;;;;;;;;;;;;;;33.75;52.84;95368.66;5115670;28;1060;-58
2023/07/16 10:58:40;;;;;;;;;;;;;;;33.98;52.30;95370.50;5115490;28;1990;-58
2023/07/16 11:01:08;;;;;;;;;;;;;;;33.93;53.44;95370.56;5115796;28;976;-57
2023/07/16 11:03:34;;;;;;;;;;;;;;;33.93;52.37;95373.34;5115675;28;976;-58
2023/07/16 11:06:08;;;;;;;;;;;;;;;34.03;50.25;95366.78;5115443;28;1041;-57
2023/07/16 11:08:34;;;;;;;;;;;;;;;34.08;48.38;95371.44;5115441;28;1016;-57
2023/07/16 11:11:00;;;;;;;;;;;;;;;34.29;50.11;95371.91;5115566;28;1043;-57
2023/07/16 11:13:27;;;;;;;;;;;;;;;34.39;46.85;95371.69;5115378;28;1637;-58
2023/07/16 11:15:54;;;;;;;;;;;;;;;34.33;47.21;95357.09;5115270;28;1065;-58
2023/07/16 11:18:24;;;;;;;;;;;;;;;34.09;47.27;95357.25;5115264;28;1981;-58
2023/07/16 11:20:52;;;;;;;;;;;;;;;34.04;46.69;95355.41;5115165;28;1107;-58
2023/07/16 11:23:18;;;;;;;;;;;;;;;34.18;44.89;95362.94;5115077;28;1244;-57
2023/07/16 11:25:48;;;;;;;;;;;;;;;34.19;45.68;95356.28;5114799;28;1648;-58
2023/07/16 11:28:14;;;;;;;;;;;;;;;34.19;45.21;95351.53;5115209;28;1040;-57
2023/07/16 11:30:40;;;;;;;;;;;;;;;34.26;47.54;95353.09;5115089;28;973;-58
2023/07/16 11:33:12;;;;;;;;;;;;;;;34.26;44.22;95353.91;5113801;28;961;-58
2023/07/16 11:35:39;;;;;;;;;;;;;;;34.18;48.59;95349.06;5114861;28;1048;-57
2023/07/16 11:38:05;;;;;;;;;;;;;;;34.09;45.66;95345.31;5114808;28;1910;-57
2023/07/16 11:40:33;;;;;;;;;;;;;;;34.30;46.56;95346.63;5114801;28;1057;-57
2023/07/16 11:43:07;;;;;;;;;;;;;;;34.44;46.29;95348.59;5114935;28;1012;-56
2023/07/16 11:45:33;;;;;;;;;;;;;;;34.47;43.05;95340.47;5114743;28;952;-57
2023/07/16 11:47:59;;;;;;;;;;;;;;;34.54;45.83;95346.41;5114586;28;1092;-57
2023/07/16 11:50:26;;;;;;;;;;;;;;;34.40;47.04;95335.31;5114602;28;968;-57
2023/07/16 11:52:55;;;;;;;;;;;;;;;34.27;43.17;95347.22;5114821;28;969;-57
2023/07/16 11:55:22;;;;;;;;;;;;;;;34.38;46.79;95331.22;5113913;28;1266;-57
2023/07/16 11:57:48;;;;;;;;;;;;;;;34.26;44.12;95340.03;5112753;28;1909;-57
2023/07/16 12:00:14;;;;;;;;;;;;;;;34.25;44.14;95340.34;5112422;28;1334;-57
2023/07/16 12:02:40;;;;;;;;;;;;;;;34.28;44.66;95345.28;5113330;28;1003;-57
2023/07/16 12:05:06;;;;;;;;;;;;;;;34.35;43.51;95342.91;5113397;28;1008;-57
2023/07/16 12:07:32;;;;;;;;;;;;;;;34.36;44.14;95334.28;5113640;28;997;-57
2023/07/16 12:09:59;;;;;;;;;;;;;;;34.36;44.20;95333.47;5113488;28;1027;-57
2023/07/16 12:12:25;;;;;;;;;;;;;;;34.25;43.74;95332.84;5112242;28;976;-58
2023/07/16 12:14:51;;;;;;;;;;;;;;;34.20;43.10;95342.06;5113250;28;1100;-58
2023/07/16 12:17:17;;;;;;;;;;;;;;;34.02;41.24;95337.41;5113193;28;1991;-57
2023/07/16 12:19:43;;;;;;;;;;;;;;;33.96;44.13;95322.81;5113020;28;1143;-57
2023/07/16 12:22:09;;;;;;;;;;;;;;;33.97;42.02;95335.56;5113126;28;1041;-57
2023/07/16 12:24:35;;;;;;;;;;;;;;;34.03;42.71;95330.72;5112881;28;1556;-58
2023/07/16 12:27:01;;;;;;;;;;;;;;;34.05;43.47;95331.25;5113105;28;1076;-57
2023/07/16 12:29:27;;;;;;;;;;;;;;;34.01;40.92;95333.81;5113306;28;1265;-57
2023/07/16 12:31:53;;;;;;;;;;;;;;;34.01;42.56;95327.44;5113101;28;1198;-57
2023/07/16 12:34:19;;;;;;;;;;;;;;;33.97;41.31;95323.63;5112959;28;1023;-57
2023/07/16 12:36:45;;;;;;;;;;;;;;;34.04;39.90;95332.38;5112877;28;1545;-58
2023/07/16 12:39:12;;;;;;;;;;;;;;;34.15;39.95;95327.44;5113070;28;1913;-58
2023/07/16 12:41:38;;;;;;;;;;;;;;;34.09;41.31;95317.59;5113141;28;1248;-57
2023/07/16 12:44:04;;;;;;;;;;;;;;;34.06;41.41;95321.00;5111746;28;1099;-58
2023/07/16 12:46:30;;;;;;;;;;;;;;;34.27;39.81;95330.59;5112977;28;1049;-58
2023/07/16 12:48:56;;;;;;;;;;;;;;;34.29;39.60;95325.53;5112773;28;1096;-57
2023/07/16 12:51:22;;;;;;;;;;;;;;;34.26;40.73;95317.81;5113079;28;1045;-58
2023/07/16 12:53:48;;;;;;;;;;;;;;;34.17;40.87;95317.75;5112735;28;1040;-57
2023/07/16 12:56:14;;;;;;;;;;;;;;;34.17;44.24;95314.16;5112960;28;1020;-57
2023/07/16 12:58:40;;;;;;;;;;;;;;;33.97;41.76;95316.13;5112735;28;1914;-57